Time,TemperatureF,DewpointF,PressureIn,WindDirection,WindDirectionDegrees,WindSpeedMPH,WindSpeedGustMPH,Humidity,HourlyPrecipIn,Conditions,Clouds,dailyrainin,SoftwareType,DateUTC
2013-02-25 00:01:00,38.9,5.0,30.21,SSE,158,0.0,3.1,24,-99.99,,,-99.99,WSDL version 423,2013-02-25 08:01:00,
2013-02-25 00:06:00,38.6,4.9,30.21,SSE,158,2.2,3.1,24,-99.99,,,-99.99,WSDL version 423,2013-02-25 08:06:00,
2013-02-25 00:11:00,38.3,4.6,30.21,SSE,158,0.7,3.1,24,-99.99,,,-99.99,WSDL version 423,2013-02-25 08:11:00,
2013-02-25 00:16:00,37.8,4.2,30.24,SSE,158,0.0,2.7,24,-99.99,,,-99.99,WSDL version 423,2013-02-25 08:16:00,
2013-02-25 00:21:00,37.3,3.8,30.24,SSE,158,0.0,0.0,24,-99.99,,,-99.99,WSDL version 423,2013-02-25 08:21:00,
2013-02-25 00:26:00,36.7,3.3,30.24,SSE,158,0.0,0.0,24,-99.99,,,-99.99,WSDL version 423,2013-02-25 08:26:00,
2013-02-25 00:31:00,36.4,4.1,30.21,SSE,158,0.0,0.0,27,-99.99,,,-99.99,WSDL version 423,2013-02-25 08:31:00,
2013-02-25 00:36:00,36.4,5.5,30.21,SSE,158,0.0,0.0,27,-99.99,,,-99.99,WSDL version 423,2013-02-25 08:36:00,
2013-02-25 00:41:00,36.1,5.3,30.21,SSE,158,0.0,0.0,27,-99.99,,,-99.99,WSDL version 423,2013-02-25 08:41:00,
2013-02-25 00:46:00,36.0,5.2,30.21,SSE,158,3.1,4.0,27,-99.99,,,-99.99,WSDL version 423,2013-02-25 08:46:00,
2013-02-25 00:51:00,35.9,5.2,30.21,SSE,158,1.4,4.0,27,-99.99,,,-99.99,WSDL version 423,2013-02-25 08:51:00,
2013-02-25 00:56:00,35.9,5.2,30.21,SSE,158,0.0,3.1,27,-99.99,,,-99.99,WSDL version 423,2013-02-25 08:56:00,
2013-02-25 01:01:00,36.1,5.3,30.21,SSE,158,2.1,3.1,27,-99.99,,,-99.99,WSDL version 423,2013-02-25 09:01:00,
2013-02-25 01:06:00,36.0,5.2,30.21,SSE,158,0.0,3.1,27,-99.99,,,-99.99,WSDL version 423,2013-02-25 09:06:00,
2013-02-25 01:11:00,35.6,4.9,30.21,SSE,158,0.0,0.0,27,-99.99,,,-99.99,WSDL version 423,2013-02-25 09:11:00,
2013-02-25 01:16:00,35.8,5.1,30.21,SSE,158,0.3,2.7,27,-99.99,,,-99.99,WSDL version 423,2013-02-25 09:16:00,
2013-02-25 01:21:00,35.7,5.0,30.21,SSE,158,0.0,2.7,27,-99.99,,,-99.99,WSDL version 423,2013-02-25 09:21:00,
2013-02-25 01:26:00,35.6,4.9,30.21,SSE,158,0.0,2.2,27,-99.99,,,-99.99,WSDL version 423,2013-02-25 09:26:00,
2013-02-25 01:31:00,35.3,4.6,30.21,SSE,158,0.0,0.0,27,-99.99,,,-99.99,WSDL version 423,2013-02-25 09:31:00,
2013-02-25 01:36:00,35.0,4.4,30.21,SSE,158,0.4,4.0,27,-99.99,,,-99.99,WSDL version 423,2013-02-25 09:36:00,
2013-02-25 01:41:00,35.0,4.4,30.21,SSE,158,3.1,5.4,27,-99.99,,,-99.99,WSDL version 423,2013-02-25 09:41:00,
2013-02-25 01:46:00,34.6,4.1,30.21,SSE,158,1.7,5.4,27,-99.99,,,-99.99,WSDL version 423,2013-02-25 09:46:00,
2013-02-25 01:51:00,34.2,3.7,30.21,SSE,158,1.5,4.0,27,-99.99,,,-99.99,WSDL version 423,2013-02-25 09:51:00,
2013-02-25 01:56:00,34.0,3.5,30.21,SSE,158,2.3,3.6,27,-99.99,,,-99.99,WSDL version 423,2013-02-25 09:56:00,
2013-02-25 02:01:00,33.8,3.4,30.21,SSE,158,3.9,4.9,27,-99.99,,,-99.99,WSDL version 423,2013-02-25 10:01:00,
2013-02-25 02:06:00,33.9,3.4,30.21,West,273,2.7,5.4,27,-99.99,,,-99.99,WSDL version 423,2013-02-25 10:06:00,
2013-02-25 02:11:00,34.2,3.6,30.21,SW,228,2.9,5.4,27,-99.99,,,-99.99,WSDL version 423,2013-02-25 10:11:00,
2013-02-25 02:16:00,34.4,3.8,30.24,SW,225,1.3,4.9,27,-99.99,,,-99.99,WSDL version 423,2013-02-25 10:16:00,
2013-02-25 02:21:00,34.6,4.1,30.24,SW,225,0.0,4.0,27,-99.99,,,-99.99,WSDL version 423,2013-02-25 10:21:00,
2013-02-25 02:26:00,34.9,4.3,30.24,SW,225,1.3,4.0,27,-99.99,,,-99.99,WSDL version 423,2013-02-25 10:26:00,
2013-02-25 02:31:00,35.5,4.8,30.21,SW,225,0.7,4.9,27,-99.99,,,-99.99,WSDL version 423,2013-02-25 10:31:00,
2013-02-25 02:36:00,35.8,5.1,30.21,SSW,203,1.4,4.9,27,-99.99,,,-99.99,WSDL version 423,2013-02-25 10:36:00,
2013-02-25 02:41:00,35.5,4.8,30.21,SSW,203,2.3,4.0,27,-99.99,,,-99.99,WSDL version 423,2013-02-25 10:41:00,
2013-02-25 02:46:00,35.2,4.5,30.21,SSW,203,2.3,3.6,27,-99.99,,,-99.99,WSDL version 423,2013-02-25 10:46:00,
2013-02-25 02:51:00,34.9,4.3,30.21,SSW,203,2.9,4.0,27,-99.99,,,-99.99,WSDL version 423,2013-02-25 10:51:00,
2013-02-25 02:56:00,34.6,4.1,30.21,SSW,203,2.9,4.0,27,-99.99,,,-99.99,WSDL version 423,2013-02-25 10:56:00,
2013-02-25 03:01:00,34.4,3.9,30.21,SSW,203,2.7,4.0,27,-99.99,,,-99.99,WSDL version 423,2013-02-25 11:01:00,
2013-02-25 03:06:00,34.2,3.7,30.21,SSW,203,2.7,4.0,27,-99.99,,,-99.99,WSDL version 423,2013-02-25 11:06:00,
2013-02-25 03:11:00,33.9,3.4,30.21,SSW,203,2.0,4.0,27,-99.99,,,-99.99,WSDL version 423,2013-02-25 11:11:00,
2013-02-25 03:16:00,33.7,3.8,30.21,SSW,203,0.0,3.6,28,-99.99,,,-99.99,WSDL version 423,2013-02-25 11:16:00,
2013-02-25 03:21:00,33.3,3.7,30.21,SSW,203,0.0,3.1,28,-99.99,,,-99.99,WSDL version 423,2013-02-25 11:21:00,
2013-02-25 03:26:00,32.7,3.2,30.21,SSW,203,0.0,0.0,28,-99.99,,,-99.99,WSDL version 423,2013-02-25 11:26:00,
2013-02-25 03:31:00,32.4,2.9,30.21,SSW,203,0.0,2.7,28,-99.99,,,-99.99,WSDL version 423,2013-02-25 11:31:00,
2013-02-25 03:36:00,32.5,3.0,30.21,SSW,203,2.5,3.6,28,-99.99,,,-99.99,WSDL version 423,2013-02-25 11:36:00,
2013-02-25 03:41:00,32.5,3.0,30.21,SSW,203,0.0,3.6,28,-99.99,,,-99.99,WSDL version 423,2013-02-25 11:41:00,
2013-02-25 03:46:00,32.6,3.1,30.21,SSW,203,2.1,4.0,28,-99.99,,,-99.99,WSDL version 423,2013-02-25 11:46:00,
2013-02-25 03:51:00,32.7,3.2,30.21,SSW,203,0.0,4.0,28,-99.99,,,-99.99,WSDL version 423,2013-02-25 11:51:00,
2013-02-25 03:56:00,32.8,3.3,30.21,SSW,203,0.3,3.1,28,-99.99,,,-99.99,WSDL version 423,2013-02-25 11:56:00,
2013-02-25 04:01:00,32.9,3.3,30.21,SSW,203,0.3,3.1,28,-99.99,,,-99.99,WSDL version 423,2013-02-25 12:01:00,
2013-02-25 04:06:00,32.7,3.2,30.21,SSW,203,0.0,3.1,28,-99.99,,,-99.99,WSDL version 423,2013-02-25 12:06:00,
2013-02-25 04:11:00,32.7,3.2,30.21,SSW,203,0.0,3.1,28,-99.99,,,-99.99,WSDL version 423,2013-02-25 12:11:00,
2013-02-25 04:16:00,32.4,2.9,30.21,SSW,203,0.0,0.0,28,-99.99,,,-99.99,WSDL version 423,2013-02-25 12:16:00,
2013-02-25 04:21:00,32.4,2.9,30.21,SSW,203,0.0,0.0,28,-99.99,,,-99.99,WSDL version 423,2013-02-25 12:21:00,
2013-02-25 04:26:00,32.8,3.3,30.21,SSW,203,0.0,0.0,28,-99.99,,,-99.99,WSDL version 423,2013-02-25 12:26:00,
2013-02-25 04:31:00,32.9,3.3,30.21,SSW,203,0.0,0.0,28,-99.99,,,-99.99,WSDL version 423,2013-02-25 12:31:00,
2013-02-25 04:36:00,32.7,3.2,30.21,SSW,203,0.0,0.0,28,-99.99,,,-99.99,WSDL version 423,2013-02-25 12:36:00,
2013-02-25 04:41:00,32.4,2.9,30.21,SSW,203,0.0,0.0,28,-99.99,,,-99.99,WSDL version 423,2013-02-25 12:41:00,
2013-02-25 04:47:00,32.1,3.9,30.21,SSW,203,0.0,0.0,28,-99.99,,,-99.99,WSDL version 423,2013-02-25 12:47:00,
2013-02-25 04:53:00,31.9,5.6,30.21,SSW,203,0.0,0.0,28,-99.99,,,-99.99,WSDL version 423,2013-02-25 12:53:00,
2013-02-25 04:58:00,31.8,5.5,30.21,SSW,203,0.0,0.0,28,-99.99,,,-99.99,WSDL version 423,2013-02-25 12:58:00,
2013-02-25 05:04:00,31.2,4.9,30.21,SSW,203,0.0,0.0,28,-99.99,,,-99.99,WSDL version 423,2013-02-25 13:04:00,
2013-02-25 05:09:00,31.2,5.0,30.21,SSW,203,0.0,0.0,28,-99.99,,,-99.99,WSDL version 423,2013-02-25 13:09:00,
2013-02-25 05:14:00,31.2,4.9,30.24,SSW,203,0.0,0.0,28,-99.99,,,-99.99,WSDL version 423,2013-02-25 13:14:00,
2013-02-25 05:19:00,30.4,4.3,30.24,SSW,203,0.0,0.0,28,-99.99,,,-99.99,WSDL version 423,2013-02-25 13:19:00,
2013-02-25 05:24:00,30.6,4.4,30.24,SSW,203,0.0,0.0,28,-99.99,,,-99.99,WSDL version 423,2013-02-25 13:24:00,
2013-02-25 05:29:00,30.2,4.1,30.24,SSW,203,0.0,0.0,28,-99.99,,,-99.99,WSDL version 423,2013-02-25 13:29:00,
2013-02-25 05:34:00,29.7,3.6,30.24,SSW,203,0.0,0.0,28,-99.99,,,-99.99,WSDL version 423,2013-02-25 13:34:00,
2013-02-25 05:39:00,28.9,3.2,30.24,SSW,203,0.0,0.0,30,-99.99,,,-99.99,WSDL version 423,2013-02-25 13:39:00,
2013-02-25 05:44:00,29.0,4.3,30.24,SSW,203,0.0,0.0,30,-99.99,,,-99.99,WSDL version 423,2013-02-25 13:44:00,
2013-02-25 05:49:00,28.6,4.2,30.24,SSW,203,0.0,0.0,31,-99.99,,,-99.99,WSDL version 423,2013-02-25 13:49:00,
2013-02-25 05:54:00,29.4,4.7,30.24,SSW,203,0.0,0.0,30,-99.99,,,-99.99,WSDL version 423,2013-02-25 13:54:00,
2013-02-25 05:59:00,29.5,4.8,30.24,SSW,203,0.0,0.0,30,-99.99,,,-99.99,WSDL version 423,2013-02-25 13:59:00,
2013-02-25 06:04:00,29.4,4.7,30.24,SSW,203,0.0,0.0,30,-99.99,,,-99.99,WSDL version 423,2013-02-25 14:04:00,
2013-02-25 06:09:00,29.0,4.3,30.24,SSW,203,0.0,0.0,30,-99.99,,,-99.99,WSDL version 423,2013-02-25 14:09:00,
2013-02-25 06:16:00,28.4,4.2,30.24,SSW,203,0.0,0.0,31,-99.99,,,-99.99,WSDL version 423,2013-02-25 14:16:00,
2013-02-25 06:21:00,28.1,4.2,30.24,SSW,203,0.0,0.0,31,-99.99,,,-99.99,WSDL version 423,2013-02-25 14:21:00,
2013-02-25 06:26:00,28.7,4.6,30.24,SSW,203,0.0,0.0,31,-99.99,,,-99.99,WSDL version 423,2013-02-25 14:26:00,
2013-02-25 06:31:00,28.9,4.7,30.24,SSW,203,0.0,0.0,31,-99.99,,,-99.99,WSDL version 423,2013-02-25 14:31:00,
2013-02-25 06:36:00,29.3,5.2,30.24,SSW,203,0.0,0.0,30,-99.99,,,-99.99,WSDL version 423,2013-02-25 14:36:00,
2013-02-25 06:41:00,29.8,5.7,30.24,SSW,203,0.0,0.0,31,-99.99,,,-99.99,WSDL version 423,2013-02-25 14:41:00,
2013-02-25 06:46:00,30.7,5.8,30.24,SSW,203,0.0,0.0,30,-99.99,,,-99.99,WSDL version 423,2013-02-25 14:46:00,
2013-02-25 06:51:00,31.2,6.3,30.24,SSW,203,0.0,0.0,30,-99.99,,,-99.99,WSDL version 423,2013-02-25 14:51:00,
2013-02-25 06:56:00,31.5,6.6,30.24,SSW,203,0.0,0.0,30,-99.99,,,-99.99,WSDL version 423,2013-02-25 14:56:00,
2013-02-25 07:01:00,32.0,6.0,30.24,SSW,203,0.6,3.1,30,-99.99,,,-99.99,WSDL version 423,2013-02-25 15:01:00,
2013-02-25 07:06:00,32.5,4.5,30.24,South,180,0.0,3.6,30,-99.99,,,-99.99,WSDL version 423,2013-02-25 15:06:00,
2013-02-25 07:11:00,33.0,5.0,30.24,South,180,0.0,3.6,30,-99.99,,,-99.99,WSDL version 423,2013-02-25 15:11:00,
2013-02-25 07:16:00,33.8,5.6,30.24,South,180,0.0,0.0,30,-99.99,,,-99.99,WSDL version 423,2013-02-25 15:16:00,
2013-02-25 07:21:00,34.6,6.3,30.24,South,180,0.0,0.0,30,-99.99,,,-99.99,WSDL version 423,2013-02-25 15:21:00,
2013-02-25 07:26:00,35.4,7.1,30.24,South,180,0.0,0.0,30,-99.99,,,-99.99,WSDL version 423,2013-02-25 15:26:00,
2013-02-25 07:31:00,36.3,7.7,30.24,South,180,0.0,2.7,29,-99.99,,,-99.99,WSDL version 423,2013-02-25 15:31:00,
2013-02-25 07:36:00,36.6,7.3,30.24,South,180,0.0,2.7,29,-99.99,,,-99.99,WSDL version 423,2013-02-25 15:36:00,
2013-02-25 07:41:00,37.3,7.9,30.24,South,180,0.0,0.0,29,-99.99,,,-99.99,WSDL version 423,2013-02-25 15:41:00,
2013-02-25 07:46:00,37.4,7.2,30.24,WNW,293,1.5,3.6,26,-99.99,,,-99.99,WSDL version 423,2013-02-25 15:46:00,
2013-02-25 07:51:00,37.8,6.0,30.24,WNW,293,3.0,4.0,26,-99.99,,,-99.99,WSDL version 423,2013-02-25 15:51:00,
2013-02-25 07:57:00,38.9,6.9,30.24,West,270,2.7,4.5,26,-99.99,,,-99.99,WSDL version 423,2013-02-25 15:57:00,
2013-02-25 08:02:00,39.8,7.7,30.24,SW,228,1.2,4.5,26,-99.99,,,-99.99,WSDL version 423,2013-02-25 16:02:00,
2013-02-25 08:07:00,40.8,8.5,30.24,SSW,203,0.0,4.0,26,-99.99,,,-99.99,WSDL version 423,2013-02-25 16:07:00,
2013-02-25 08:12:00,41.9,9.5,30.24,SSW,203,0.0,2.7,26,-99.99,,,-99.99,WSDL version 423,2013-02-25 16:12:00,
2013-02-25 08:17:00,43.1,9.7,30.24,SSW,203,0.8,4.0,25,-99.99,,,-99.99,WSDL version 423,2013-02-25 16:17:00,
2013-02-25 08:22:00,43.6,10.1,30.24,SSE,153,2.8,4.5,25,-99.99,,,-99.99,WSDL version 423,2013-02-25 16:22:00,
2013-02-25 08:27:00,44.0,10.4,30.24,SSE,163,1.2,4.5,25,-99.99,,,-99.99,WSDL version 423,2013-02-25 16:27:00,
2013-02-25 08:32:00,44.3,10.7,30.24,South,177,3.1,4.0,25,-99.99,,,-99.99,WSDL version 423,2013-02-25 16:32:00,
2013-02-25 08:37:00,45.1,11.4,30.24,SSE,158,1.7,4.0,25,-99.99,,,-99.99,WSDL version 423,2013-02-25 16:37:00,
2013-02-25 08:42:00,45.5,11.7,30.24,South,188,3.2,5.4,25,-99.99,,,-99.99,WSDL version 423,2013-02-25 16:42:00,
2013-02-25 08:47:00,45.9,12.1,30.24,SW,222,4.0,5.4,25,-99.99,,,-99.99,WSDL version 423,2013-02-25 16:47:00,
2013-02-25 08:52:00,46.7,11.9,30.24,SW,233,2.2,4.9,24,-99.99,,,-99.99,WSDL version 423,2013-02-25 16:52:00,
2013-02-25 08:57:00,47.4,12.4,30.24,SW,223,2.6,4.0,24,-99.99,,,-99.99,WSDL version 423,2013-02-25 16:57:00,
2013-02-25 09:02:00,48.2,13.1,30.24,West,276,2.7,4.0,24,-99.99,,,-99.99,WSDL version 423,2013-02-25 17:02:00,
2013-02-25 09:07:00,48.9,13.7,30.24,WSW,258,2.9,4.5,24,-99.99,,,-99.99,WSDL version 423,2013-02-25 17:07:00,
2013-02-25 09:12:00,49.6,14.3,30.24,SW,219,1.7,4.5,24,-99.99,,,-99.99,WSDL version 423,2013-02-25 17:12:00,
2013-02-25 09:17:00,50.2,14.8,30.24,WSW,245,1.8,4.9,24,-99.99,,,-99.99,WSDL version 423,2013-02-25 17:17:00,
2013-02-25 09:22:00,50.1,14.7,30.24,WNW,301,1.7,4.9,24,-99.99,,,-99.99,WSDL version 423,2013-02-25 17:22:00,
2013-02-25 09:27:00,50.5,15.1,30.24,WNW,283,1.5,4.5,24,-99.99,,,-99.99,WSDL version 423,2013-02-25 17:27:00,
2013-02-25 09:32:00,51.4,14.8,30.21,NW,315,1.2,4.5,21,-99.99,,,-99.99,WSDL version 423,2013-02-25 17:32:00,
2013-02-25 09:37:00,51.9,13.6,30.21,NNW,338,1.9,4.0,21,-99.99,,,-99.99,WSDL version 423,2013-02-25 17:37:00,
2013-02-25 09:42:00,52.3,14.2,30.21,NNW,338,2.3,4.0,21,-99.99,,,-99.99,WSDL version 423,2013-02-25 17:42:00,
2013-02-25 09:47:00,52.3,13.5,30.21,NW,315,1.7,4.0,21,-99.99,,,-99.99,WSDL version 423,2013-02-25 17:47:00,
2013-02-25 09:52:00,51.8,13.1,30.21,NNE,20,3.2,5.4,21,-99.99,,,-99.99,WSDL version 423,2013-02-25 17:52:00,
2013-02-25 09:57:00,52.3,13.5,30.21,NNW,338,1.6,5.4,21,-99.99,,,-99.99,WSDL version 423,2013-02-25 17:57:00,
2013-02-25 10:02:00,53.5,13.8,30.21,NE,43,0.7,3.6,20,-99.99,,,-99.99,WSDL version 423,2013-02-25 18:02:00,
2013-02-25 10:07:00,54.3,14.2,30.21,NW,308,1.7,4.9,21,-99.99,,,-99.99,WSDL version 423,2013-02-25 18:07:00,
2013-02-25 10:12:00,53.3,14.4,30.21,WNW,293,2.7,4.9,21,-99.99,,,-99.99,WSDL version 423,2013-02-25 18:12:00,
2013-02-25 10:17:00,54.4,14.4,30.21,SSW,203,0.7,4.0,20,-99.99,,,-99.99,WSDL version 423,2013-02-25 18:17:00,
2013-02-25 10:22:00,54.2,14.2,30.21,NW,323,3.6,4.9,21,-99.99,,,-99.99,WSDL version 423,2013-02-25 18:22:00,
2013-02-25 10:27:00,53.9,13.7,30.21,WNW,293,2.4,4.9,20,-99.99,,,-99.99,WSDL version 423,2013-02-25 18:27:00,
2013-02-25 10:32:00,54.4,14.4,30.21,NW,326,4.8,5.8,21,-99.99,,,-99.99,WSDL version 423,2013-02-25 18:32:00,
2013-02-25 10:37:00,54.4,14.1,30.21,North,350,2.7,5.8,20,-99.99,,,-99.99,WSDL version 423,2013-02-25 18:37:00,
2013-02-25 10:42:00,54.0,14.1,30.21,North,3,4.4,6.7,20,-99.99,,,-99.99,WSDL version 423,2013-02-25 18:42:00,
2013-02-25 10:47:00,55.1,14.7,30.21,NNE,31,2.2,6.7,20,-99.99,,,-99.99,WSDL version 423,2013-02-25 18:47:00,
2013-02-25 10:53:00,56.9,16.1,30.21,WSW,242,2.5,4.0,20,-99.99,,,-99.99,WSDL version 423,2013-02-25 18:53:00,
2013-02-25 10:58:00,57.6,15.6,30.21,NNW,330,1.4,4.0,19,-99.99,,,-99.99,WSDL version 423,2013-02-25 18:58:00,
2013-02-25 11:03:00,56.2,15.5,30.18,NNE,18,3.8,6.3,20,-99.99,,,-99.99,WSDL version 423,2013-02-25 19:03:00,
2013-02-25 11:08:00,57.0,15.8,30.18,NNE,23,0.0,6.3,19,-99.99,,,-99.99,WSDL version 423,2013-02-25 19:08:00,
2013-02-25 11:13:00,56.9,15.8,30.18,NNE,30,2.1,5.4,19,-99.99,,,-99.99,WSDL version 423,2013-02-25 19:13:00,
2013-02-25 11:18:00,57.1,15.8,30.18,North,11,4.5,7.6,20,-99.99,,,-99.99,WSDL version 423,2013-02-25 19:18:00,
2013-02-25 11:23:00,57.1,15.8,30.18,East,82,1.6,7.6,19,-99.99,,,-99.99,WSDL version 423,2013-02-25 19:23:00,
2013-02-25 11:28:00,58.0,16.0,30.18,East,90,1.1,5.8,19,-99.99,,,-99.99,WSDL version 423,2013-02-25 19:28:00,
2013-02-25 11:33:00,57.7,15.9,30.18,ENE,70,4.6,6.3,20,-99.99,,,-99.99,WSDL version 423,2013-02-25 19:33:00,
2013-02-25 11:38:00,58.0,15.9,30.18,ESE,110,4.0,6.3,19,-99.99,,,-99.99,WSDL version 423,2013-02-25 19:38:00,
2013-02-25 11:43:00,58.5,16.4,30.18,ESE,107,3.9,6.3,19,-99.99,,,-99.99,WSDL version 423,2013-02-25 19:43:00,
2013-02-25 11:48:00,58.5,16.4,30.18,NE,45,2.6,6.3,19,-99.99,,,-99.99,WSDL version 423,2013-02-25 19:48:00,
2013-02-25 11:53:00,58.3,16.2,30.18,NNW,338,2.3,6.3,19,-99.99,,,-99.99,WSDL version 423,2013-02-25 19:53:00,
2013-02-25 11:58:00,59.0,16.8,30.18,ESE,113,3.2,6.3,19,-99.99,,,-99.99,WSDL version 423,2013-02-25 19:58:00,
2013-02-25 12:03:00,59.5,17.2,30.15,ESE,113,2.7,6.3,19,-99.99,,,-99.99,WSDL version 423,2013-02-25 20:03:00,
2013-02-25 12:08:00,60.1,17.7,30.15,SSW,203,0.0,5.8,19,-99.99,,,-99.99,WSDL version 423,2013-02-25 20:08:00,
2013-02-25 12:13:00,60.3,17.9,30.15,SE,143,2.3,5.4,19,-99.99,,,-99.99,WSDL version 423,2013-02-25 20:13:00,
2013-02-25 12:18:00,60.8,18.3,30.15,South,173,0.2,5.4,19,-99.99,,,-99.99,WSDL version 423,2013-02-25 20:18:00,
2013-02-25 12:23:00,61.1,18.6,30.15,SSW,200,1.9,4.9,19,-99.99,,,-99.99,WSDL version 423,2013-02-25 20:23:00,
2013-02-25 12:28:00,61.0,18.5,30.15,WNW,286,3.6,5.8,19,-99.99,,,-99.99,WSDL version 423,2013-02-25 20:28:00,
2013-02-25 12:33:00,59.7,17.4,30.15,WNW,298,4.0,6.3,19,-99.99,,,-99.99,WSDL version 423,2013-02-25 20:33:00,
2013-02-25 12:38:00,59.3,17.0,30.15,NNW,332,5.2,7.2,19,-99.99,,,-99.99,WSDL version 423,2013-02-25 20:38:00,
2013-02-25 12:43:00,59.6,17.3,30.15,NNE,25,1.9,7.2,19,-99.99,,,-99.99,WSDL version 423,2013-02-25 20:43:00,
2013-02-25 12:48:00,60.4,17.9,30.15,North,354,1.0,4.9,19,-99.99,,,-99.99,WSDL version 423,2013-02-25 20:48:00,
2013-02-25 12:53:00,60.5,18.1,30.15,WNW,293,2.1,5.4,19,-99.99,,,-99.99,WSDL version 423,2013-02-25 20:53:00,
2013-02-25 12:58:00,61.2,18.6,30.15,WNW,295,3.8,6.3,19,-99.99,,,-99.99,WSDL version 423,2013-02-25 20:58:00,
2013-02-25 13:03:00,61.3,18.7,30.12,West,267,0.6,6.3,19,-99.99,,,-99.99,WSDL version 423,2013-02-25 21:03:00,
2013-02-25 13:08:00,61.4,18.8,30.12,NW,308,4.4,7.6,19,-99.99,,,-99.99,WSDL version 423,2013-02-25 21:08:00,
2013-02-25 13:13:00,61.5,18.9,30.12,WNW,298,2.0,7.6,19,-99.99,,,-99.99,WSDL version 423,2013-02-25 21:13:00,
2013-02-25 13:18:00,61.9,19.2,30.12,WSW,253,3.2,7.6,19,-99.99,,,-99.99,WSDL version 423,2013-02-25 21:18:00,
2013-02-25 13:23:00,62.1,19.4,30.12,SSW,203,1.0,7.6,19,-99.99,,,-99.99,WSDL version 423,2013-02-25 21:23:00,
2013-02-25 13:28:00,62.9,18.8,30.12,SSW,203,0.0,4.9,18,-99.99,,,-99.99,WSDL version 423,2013-02-25 21:28:00,
2013-02-25 13:33:00,62.6,18.9,30.12,NNW,345,3.1,5.4,19,-99.99,,,-99.99,WSDL version 423,2013-02-25 21:33:00,
2013-02-25 13:38:00,62.5,18.9,30.12,West,262,2.8,5.4,18,-99.99,,,-99.99,WSDL version 423,2013-02-25 21:38:00,
2013-02-25 13:43:00,63.0,19.0,30.12,ESE,123,2.4,4.9,18,-99.99,,,-99.99,WSDL version 423,2013-02-25 21:43:00,
2013-02-25 13:48:00,64.0,19.6,30.09,WNW,290,1.7,5.8,18,-99.99,,,-99.99,WSDL version 423,2013-02-25 21:48:00,
2013-02-25 13:53:00,63.8,19.5,30.09,WSW,248,2.4,5.8,18,-99.99,,,-99.99,WSDL version 423,2013-02-25 21:53:00,
2013-02-25 13:58:00,63.1,18.9,30.09,WSW,240,2.8,7.6,18,-99.99,,,-99.99,WSDL version 423,2013-02-25 21:58:00,
2013-02-25 14:03:00,62.8,18.9,30.09,WNW,293,2.5,7.6,18,-99.99,,,-99.99,WSDL version 423,2013-02-25 22:03:00,
2013-02-25 14:08:00,63.5,19.3,30.09,East,83,2.8,5.4,18,-99.99,,,-99.99,WSDL version 423,2013-02-25 22:08:00,
2013-02-25 14:13:00,64.4,20.0,30.09,ENE,61,1.6,4.9,18,-99.99,,,-99.99,WSDL version 423,2013-02-25 22:13:00,
2013-02-25 14:18:00,63.5,19.3,30.09,East,98,4.7,6.7,18,-99.99,,,-99.99,WSDL version 423,2013-02-25 22:18:00,
2013-02-25 14:23:00,63.3,19.1,30.09,East,79,3.5,6.7,18,-99.99,,,-99.99,WSDL version 423,2013-02-25 22:23:00,
2013-02-25 14:28:00,63.7,19.4,30.09,South,180,2.3,6.3,18,-99.99,,,-99.99,WSDL version 423,2013-02-25 22:28:00,
2013-02-25 14:33:00,62.8,19.1,30.09,NW,315,4.1,6.3,18,-99.99,,,-99.99,WSDL version 423,2013-02-25 22:33:00,
2013-02-25 14:38:00,63.4,19.5,30.09,ESE,115,2.2,6.3,18,-99.99,,,-99.99,WSDL version 423,2013-02-25 22:38:00,
2013-02-25 14:43:00,64.0,19.7,30.09,NNE,18,2.1,6.3,18,-99.99,,,-99.99,WSDL version 423,2013-02-25 22:43:00,
2013-02-25 14:48:00,64.7,20.3,30.06,SSE,158,1.3,7.6,18,-99.99,,,-99.99,WSDL version 423,2013-02-25 22:48:00,
2013-02-25 14:53:00,65.4,20.9,30.06,SSW,193,4.3,7.6,18,-99.99,,,-99.99,WSDL version 423,2013-02-25 22:53:00,
2013-02-25 14:58:00,65.2,20.6,30.06,SE,129,1.1,5.8,18,-99.99,,,-99.99,WSDL version 423,2013-02-25 22:58:00,
2013-02-25 15:03:00,64.6,20.2,30.06,South,173,4.6,6.3,18,-99.99,,,-99.99,WSDL version 423,2013-02-25 23:03:00,
2013-02-25 15:08:00,64.4,20.0,30.06,South,183,3.2,6.3,18,-99.99,,,-99.99,WSDL version 423,2013-02-25 23:08:00,
2013-02-25 15:13:00,64.3,19.9,30.06,SE,132,4.5,6.3,18,-99.99,,,-99.99,WSDL version 423,2013-02-25 23:13:00,
2013-02-25 15:18:00,64.7,20.2,30.06,ESE,113,2.3,6.3,18,-99.99,,,-99.99,WSDL version 423,2013-02-25 23:18:00,
2013-02-25 15:23:00,65.1,20.6,30.06,SW,225,2.5,7.2,18,-99.99,,,-99.99,WSDL version 423,2013-02-25 23:23:00,
2013-02-25 15:28:00,65.3,20.7,30.06,South,183,6.3,10.5,18,-99.99,,,-99.99,WSDL version 423,2013-02-25 23:28:00,
2013-02-25 15:33:00,64.4,20.0,30.03,South,186,4.6,10.5,18,-99.99,,,-99.99,WSDL version 423,2013-02-25 23:33:00,
2013-02-25 15:38:00,64.2,19.8,30.03,SSW,203,6.3,11.0,18,-99.99,,,-99.99,WSDL version 423,2013-02-25 23:38:00,
2013-02-25 15:43:00,63.7,19.5,30.03,SSW,208,7.4,11.0,18,-99.99,,,-99.99,WSDL version 423,2013-02-25 23:43:00,
2013-02-25 15:48:00,63.2,19.0,30.03,South,186,9.6,11.9,18,-99.99,,,-99.99,WSDL version 423,2013-02-25 23:48:00,
2013-02-25 15:53:00,62.9,18.7,30.03,SSE,160,7.2,11.9,18,-99.99,,,-99.99,WSDL version 423,2013-02-25 23:53:00,
2013-02-25 15:58:00,62.6,19.0,30.03,South,183,6.7,13.2,18,-99.99,,,-99.99,WSDL version 423,2013-02-25 23:58:00,
2013-02-25 16:03:00,62.6,18.9,30.03,South,178,6.9,13.2,19,-99.99,,,-99.99,WSDL version 423,2013-02-26 00:03:00,
2013-02-25 16:08:00,62.9,18.8,30.03,SSW,203,6.2,10.1,18,-99.99,,,-99.99,WSDL version 423,2013-02-26 00:08:00,
2013-02-25 16:13:00,62.9,18.8,30.03,SSE,164,6.7,11.0,18,-99.99,,,-99.99,WSDL version 423,2013-02-26 00:13:00,
2013-02-25 16:18:00,62.5,19.1,30.03,SSE,155,7.0,11.0,19,-99.99,,,-99.99,WSDL version 423,2013-02-26 00:18:00,
2013-02-25 16:24:00,62.5,19.0,30.03,SE,128,5.3,12.3,18,-99.99,,,-99.99,WSDL version 423,2013-02-26 00:24:00,
2013-02-25 16:29:00,62.6,18.7,30.03,SE,138,5.6,12.3,18,-99.99,,,-99.99,WSDL version 423,2013-02-26 00:29:00,
2013-02-25 16:35:00,62.5,19.5,30.03,SE,132,5.3,10.1,19,-99.99,,,-99.99,WSDL version 423,2013-02-26 00:35:00,
2013-02-25 16:40:00,62.3,19.6,30.03,SE,146,6.0,11.0,19,-99.99,,,-99.99,WSDL version 423,2013-02-26 00:40:00,
2013-02-25 16:45:00,62.2,19.4,30.00,South,170,6.6,11.0,19,-99.99,,,-99.99,WSDL version 423,2013-02-26 00:45:00,
2013-02-25 16:50:00,62.2,19.5,30.00,South,177,6.5,12.3,19,-99.99,,,-99.99,WSDL version 423,2013-02-26 00:50:00,
2013-02-25 16:55:00,61.8,19.1,30.00,SSE,168,6.1,12.3,19,-99.99,,,-99.99,WSDL version 423,2013-02-26 00:55:00,
2013-02-25 17:00:00,61.5,18.9,30.00,SSE,163,6.2,10.1,19,-99.99,,,-99.99,WSDL version 423,2013-02-26 01:00:00,
2013-02-25 17:05:00,61.3,18.7,30.00,South,174,5.2,9.6,19,-99.99,,,-99.99,WSDL version 423,2013-02-26 01:05:00,
2013-02-25 17:10:00,61.2,18.7,30.00,South,188,6.0,8.7,19,-99.99,,,-99.99,WSDL version 423,2013-02-26 01:10:00,
2013-02-25 17:15:00,61.0,18.4,30.00,South,191,5.3,8.7,19,-99.99,,,-99.99,WSDL version 423,2013-02-26 01:15:00,
2013-02-25 17:20:00,60.5,18.1,30.00,South,173,4.4,8.7,19,-99.99,,,-99.99,WSDL version 423,2013-02-26 01:20:00,
2013-02-25 17:25:00,60.1,17.7,30.00,SSW,194,3.4,8.7,19,-99.99,,,-99.99,WSDL version 423,2013-02-26 01:25:00,
2013-02-25 17:30:00,59.7,17.4,30.00,SSE,150,3.0,6.7,19,-99.99,,,-99.99,WSDL version 423,2013-02-26 01:30:00,
2013-02-25 17:35:00,59.2,17.0,30.00,SSE,163,3.3,6.3,19,-99.99,,,-99.99,WSDL version 423,2013-02-26 01:35:00,
2013-02-25 17:40:00,58.9,16.7,30.00,SSE,158,3.4,6.3,19,-99.99,,,-99.99,WSDL version 423,2013-02-26 01:40:00,
2013-02-25 17:45:00,58.6,16.4,30.00,SSE,158,2.5,4.9,19,-99.99,,,-99.99,WSDL version 423,2013-02-26 01:45:00,
2013-02-25 17:50:00,58.0,16.0,30.00,SSE,158,0.0,4.0,19,-99.99,,,-99.99,WSDL version 423,2013-02-26 01:50:00,
2013-02-25 17:55:00,57.5,15.5,30.00,SSE,158,1.6,3.1,19,-99.99,,,-99.99,WSDL version 423,2013-02-26 01:55:00,
2013-02-25 18:00:00,57.2,15.3,30.00,SSE,158,1.1,4.0,19,-99.99,,,-99.99,WSDL version 423,2013-02-26 02:00:00,
2013-02-25 18:05:00,57.0,16.1,30.00,ESE,113,1.9,4.0,20,-99.99,,,-99.99,WSDL version 423,2013-02-26 02:05:00,
2013-02-25 18:10:00,56.7,16.1,30.00,ESE,113,2.7,4.0,20,-99.99,,,-99.99,WSDL version 423,2013-02-26 02:10:00,
2013-02-25 18:15:00,56.5,15.9,30.00,ESE,113,1.2,3.6,20,-99.99,,,-99.99,WSDL version 423,2013-02-26 02:15:00,
2013-02-25 18:20:00,56.0,15.5,30.00,ESE,113,0.0,2.7,20,-99.99,,,-99.99,WSDL version 423,2013-02-26 02:20:00,
2013-02-25 18:25:00,55.4,15.0,30.00,ESE,113,0.0,2.7,20,-99.99,,,-99.99,WSDL version 423,2013-02-26 02:25:00,
2013-02-25 18:30:00,54.8,14.5,30.00,ESE,113,0.0,2.7,20,-99.99,,,-99.99,WSDL version 423,2013-02-26 02:30:00,
2013-02-25 18:35:00,54.5,14.2,30.00,ESE,113,0.0,2.7,20,-99.99,,,-99.99,WSDL version 423,2013-02-26 02:35:00,
2013-02-25 18:40:00,53.7,13.8,30.00,ESE,113,0.0,2.7,21,-99.99,,,-99.99,WSDL version 423,2013-02-26 02:40:00,
2013-02-25 18:45:00,53.1,16.3,30.00,ESE,113,0.0,0.0,23,-99.99,,,-99.99,WSDL version 423,2013-02-26 02:45:00,
2013-02-25 18:50:00,52.9,16.1,30.00,ESE,113,0.0,0.0,23,-99.99,,,-99.99,WSDL version 423,2013-02-26 02:50:00,
2013-02-25 18:55:00,52.4,15.7,30.00,ESE,113,0.7,4.0,23,-99.99,,,-99.99,WSDL version 423,2013-02-26 02:55:00,
2013-02-25 19:00:00,52.1,15.5,30.00,SW,225,2.7,4.9,23,-99.99,,,-99.99,WSDL version 423,2013-02-26 03:00:00,
2013-02-25 19:05:00,52.0,14.9,30.00,WNW,293,4.9,6.3,21,-99.99,,,-99.99,WSDL version 423,2013-02-26 03:05:00,
2013-02-25 19:10:00,51.1,12.5,30.00,NW,304,5.9,7.6,21,-99.99,,,-99.99,WSDL version 423,2013-02-26 03:10:00,
2013-02-25 19:15:00,50.4,11.9,30.00,WNW,290,5.7,8.7,21,-99.99,,,-99.99,WSDL version 423,2013-02-26 03:15:00,
2013-02-25 19:20:00,49.9,11.5,30.00,WNW,295,5.1,8.7,21,-99.99,,,-99.99,WSDL version 423,2013-02-26 03:20:00,
2013-02-25 19:25:00,49.5,11.2,30.00,WNW,293,4.9,7.2,21,-99.99,,,-99.99,WSDL version 423,2013-02-26 03:25:00,
2013-02-25 19:30:00,49.4,11.1,30.00,WNW,295,5.3,8.1,21,-99.99,,,-99.99,WSDL version 423,2013-02-26 03:30:00,
2013-02-25 19:35:00,49.4,11.1,30.00,WNW,293,5.0,8.1,21,-99.99,,,-99.99,WSDL version 423,2013-02-26 03:35:00,
2013-02-25 19:40:00,49.4,11.1,30.00,WNW,293,5.1,6.7,21,-99.99,,,-99.99,WSDL version 423,2013-02-26 03:40:00,
2013-02-25 19:45:00,49.0,10.8,30.03,WNW,293,3.4,5.8,21,-99.99,,,-99.99,WSDL version 423,2013-02-26 03:45:00,
2013-02-25 19:50:00,48.7,10.5,30.03,WNW,293,0.6,4.9,21,-99.99,,,-99.99,WSDL version 423,2013-02-26 03:50:00,
2013-02-25 19:55:00,48.0,10.6,30.03,West,273,1.5,3.6,22,-99.99,,,-99.99,WSDL version 423,2013-02-26 03:55:00,
2013-02-25 20:00:00,47.7,10.7,30.03,WSW,248,1.5,4.9,22,-99.99,,,-99.99,WSDL version 423,2013-02-26 04:00:00,
2013-02-25 20:05:00,47.4,10.4,30.03,WSW,248,0.5,4.9,22,-99.99,,,-99.99,WSDL version 423,2013-02-26 04:05:00,
2013-02-25 20:10:00,47.4,10.4,30.03,WSW,248,0.0,4.0,22,-99.99,,,-99.99,WSDL version 423,2013-02-26 04:10:00,
2013-02-25 20:15:00,46.9,10.0,30.03,WSW,248,0.0,2.7,22,-99.99,,,-99.99,WSDL version 423,2013-02-26 04:15:00,
2013-02-25 20:21:00,46.2,9.4,30.03,WSW,248,0.0,2.7,22,-99.99,,,-99.99,WSDL version 423,2013-02-26 04:21:00,
2013-02-25 20:26:00,45.8,9.1,30.03,WSW,248,0.0,0.0,22,-99.99,,,-99.99,WSDL version 423,2013-02-26 04:26:00,
2013-02-25 20:31:00,45.4,8.8,30.03,WSW,248,0.0,0.0,22,-99.99,,,-99.99,WSDL version 423,2013-02-26 04:31:00,
2013-02-25 20:36:00,45.2,8.6,30.03,WSW,248,0.0,0.0,22,-99.99,,,-99.99,WSDL version 423,2013-02-26 04:36:00,
2013-02-25 20:41:00,45.7,9.0,30.03,WSW,248,0.0,0.0,22,-99.99,,,-99.99,WSDL version 423,2013-02-26 04:41:00,
2013-02-25 20:46:00,45.1,8.5,30.03,WSW,248,0.0,0.0,22,-99.99,,,-99.99,WSDL version 423,2013-02-26 04:46:00,
2013-02-25 20:51:00,44.8,8.3,30.03,WSW,248,2.5,3.1,22,-99.99,,,-99.99,WSDL version 423,2013-02-26 04:51:00,
2013-02-25 20:56:00,44.8,8.8,30.03,WSW,248,2.0,3.1,22,-99.99,,,-99.99,WSDL version 423,2013-02-26 04:56:00,
2013-02-25 21:00:00,44.3,8.5,30.03,WSW,248,0.0,3.1,23,-99.99,,,-99.99,WSDL version 423,2013-02-26 05:00:00,
2013-02-25 21:01:00,44.2,8.6,30.03,WSW,248,0.0,3.1,23,-99.99,,,-99.99,WSDL version 423,2013-02-26 05:01:00,
2013-02-25 21:02:00,44.1,8.6,30.03,WSW,248,0.0,3.1,23,-99.99,,,-99.99,WSDL version 423,2013-02-26 05:02:00,
2013-02-25 21:03:00,43.9,8.8,30.03,WSW,248,0.0,3.1,25,-99.99,,,-99.99,WSDL version 423,2013-02-26 05:03:00,
2013-02-25 21:08:00,43.5,10.0,30.03,WSW,248,0.0,0.0,25,-99.99,,,-99.99,WSDL version 423,2013-02-26 05:08:00,
2013-02-25 21:13:00,42.9,9.6,30.03,WSW,248,0.0,0.0,26,-99.99,,,-99.99,WSDL version 423,2013-02-26 05:13:00,
2013-02-25 21:18:00,42.2,9.8,30.03,WSW,248,0.0,0.0,26,-99.99,,,-99.99,WSDL version 423,2013-02-26 05:18:00,
2013-02-25 21:23:00,41.8,9.4,30.03,WSW,248,0.0,0.0,26,-99.99,,,-99.99,WSDL version 423,2013-02-26 05:23:00,
2013-02-25 21:28:00,41.1,8.8,30.03,WSW,248,0.0,0.0,26,-99.99,,,-99.99,WSDL version 423,2013-02-26 05:28:00,
2013-02-25 21:33:00,40.5,8.3,30.03,WSW,248,0.0,0.0,26,-99.99,,,-99.99,WSDL version 423,2013-02-26 05:33:00,
2013-02-25 21:38:00,40.9,8.6,30.03,WSW,248,0.0,0.0,26,-99.99,,,-99.99,WSDL version 423,2013-02-26 05:38:00,
2013-02-25 21:43:00,41.1,8.8,30.03,WSW,248,0.0,0.0,26,-99.99,,,-99.99,WSDL version 423,2013-02-26 05:43:00,
2013-02-25 21:48:00,41.4,9.1,30.03,WSW,248,0.0,0.0,26,-99.99,,,-99.99,WSDL version 423,2013-02-26 05:48:00,
2013-02-25 21:53:00,41.7,9.3,30.03,WSW,248,0.0,0.0,26,-99.99,,,-99.99,WSDL version 423,2013-02-26 05:53:00,
2013-02-25 21:58:00,41.4,9.0,30.03,WSW,248,0.0,0.0,26,-99.99,,,-99.99,WSDL version 423,2013-02-26 05:58:00,
2013-02-25 22:03:00,41.0,10.1,30.03,WSW,248,0.0,0.0,28,-99.99,,,-99.99,WSDL version 423,2013-02-26 06:03:00,
2013-02-25 22:08:00,40.8,10.2,30.03,WSW,248,0.0,0.0,28,-99.99,,,-99.99,WSDL version 423,2013-02-26 06:08:00,
2013-02-25 22:13:00,40.4,9.8,30.03,WSW,248,0.0,0.0,28,-99.99,,,-99.99,WSDL version 423,2013-02-26 06:13:00,
2013-02-25 22:18:00,40.2,10.1,30.03,WSW,248,0.0,0.0,29,-99.99,,,-99.99,WSDL version 423,2013-02-26 06:18:00,
2013-02-25 22:23:00,40.0,10.3,30.03,WSW,248,0.0,0.0,29,-99.99,,,-99.99,WSDL version 423,2013-02-26 06:23:00,
2013-02-25 22:28:00,40.1,10.4,30.03,WSW,248,0.0,0.0,29,-99.99,,,-99.99,WSDL version 423,2013-02-26 06:28:00,
2013-02-25 22:33:00,40.2,10.5,30.03,WSW,248,0.0,0.0,29,-99.99,,,-99.99,WSDL version 423,2013-02-26 06:33:00,
2013-02-25 22:38:00,40.5,10.7,30.03,WSW,248,0.0,0.0,29,-99.99,,,-99.99,WSDL version 423,2013-02-26 06:38:00,
2013-02-25 22:43:00,40.7,11.5,30.03,WSW,248,0.0,0.0,30,-99.99,,,-99.99,WSDL version 423,2013-02-26 06:43:00,
2013-02-25 22:48:00,41.2,11.3,30.03,WSW,248,0.0,0.0,29,-99.99,,,-99.99,WSDL version 423,2013-02-26 06:48:00,
2013-02-25 22:53:00,42.1,12.9,30.03,WSW,248,0.0,0.0,30,-99.99,,,-99.99,WSDL version 423,2013-02-26 06:53:00,
2013-02-25 22:58:00,42.9,13.6,30.03,WSW,248,0.0,0.0,30,-99.99,,,-99.99,WSDL version 423,2013-02-26 06:58:00,
2013-02-25 23:03:00,42.4,13.0,30.03,WSW,248,0.0,0.0,30,-99.99,,,-99.99,WSDL version 423,2013-02-26 07:03:00,
2013-02-25 23:08:00,41.6,12.4,30.03,WSW,248,0.0,0.0,30,-99.99,,,-99.99,WSDL version 423,2013-02-26 07:08:00,
2013-02-25 23:13:00,40.9,11.8,30.03,WSW,248,0.0,0.0,30,-99.99,,,-99.99,WSDL version 423,2013-02-26 07:13:00,
2013-02-25 23:18:00,40.4,11.9,30.06,WSW,248,0.0,0.0,31,-99.99,,,-99.99,WSDL version 423,2013-02-26 07:18:00,
2013-02-25 23:23:00,40.7,12.4,30.06,WSW,248,0.0,0.0,31,-99.99,,,-99.99,WSDL version 423,2013-02-26 07:23:00,
2013-02-25 23:28:00,40.5,13.0,30.06,WSW,248,0.0,0.0,32,-99.99,,,-99.99,WSDL version 423,2013-02-26 07:28:00,
2013-02-25 23:33:00,40.4,12.5,30.06,WSW,248,0.0,0.0,31,-99.99,,,-99.99,WSDL version 423,2013-02-26 07:33:00,
2013-02-25 23:38:00,39.8,12.6,30.06,WSW,248,0.0,0.0,33,-99.99,,,-99.99,WSDL version 423,2013-02-26 07:38:00,
2013-02-25 23:43:00,39.3,12.6,30.06,WSW,248,0.0,0.0,33,-99.99,,,-99.99,WSDL version 423,2013-02-26 07:43:00,
2013-02-25 23:48:00,39.2,12.5,30.06,WSW,248,0.0,0.0,33,-99.99,,,-99.99,WSDL version 423,2013-02-26 07:48:00,
2013-02-25 23:53:00,39.0,12.6,30.06,WSW,248,0.0,0.0,33,-99.99,,,-99.99,WSDL version 423,2013-02-26 07:53:00,
2013-02-25 23:58:00,39.1,12.4,30.06,WSW,248,0.0,0.0,33,-99.99,,,-99.99,WSDL version 423,2013-02-26 07:58:00,